Time;durP1;ratioP1;P1;durP2;ratioP2;P2;SDS_P1;SDS_P2;PMS_P1;PMS_P2;Temp;Humidity;BMP_temperature;BMP_pressure;BME280_temperature;BME280_humidity;BME280_pressure;Samples;Min_cycle;Max_cycle;Signal;HPM_P1;HPM_P2
2022/04/12 00:00:44;;;;;;;11.05;6.47;;;;;;;8.03;69.16;101173.03;5063628;28;20816;-58
2022/04/12 00:03:12;;;;;;;11.27;6.68;;;;;;;7.97;69.45;101171.56;5050651;28;20458;-58
2022/04/12 00:05:41;;;;;;;11.80;6.63;;;;;;;7.94;69.42;101167.31;5069760;28;20499;-58
2022/04/12 00:08:11;;;;;;;11.85;6.90;;;;;;;7.92;68.86;101152.59;5069031;28;20089;-58
2022/04/12 00:10:39;;;;;;;11.88;7.38;;;;;;;7.92;69.48;101158.69;5069708;28;20522;-57
2022/04/12 00:13:07;;;;;;;10.23;6.22;;;;;;;7.92;69.59;101156.09;5069016;28;20412;-57
2022/04/12 00:15:35;;;;;;;11.07;6.75;;;;;;;7.93;68.97;101157.78;5068976;28;20040;-58
2022/04/12 00:20:53;;;;;;;11.02;6.57;;;;;;;7.86;69.48;101158.16;5068710;28;20049;-58
2022/04/12 00:23:22;;;;;;;12.43;6.82;;;;;;;7.85;69.27;101152.03;5068145;28;20647;-58
2022/04/12 00:25:52;;;;;;;12.98;7.10;;;;;;;7.77;69.54;101149.81;5069111;28;20549;-58
2022/04/12 00:28:21;;;;;;;11.50;6.85;;;;;;;7.74;69.86;101151.72;5068849;28;20552;-58
2022/04/12 00:30:49;;;;;;;11.68;6.72;;;;;;;7.72;70.59;101153.59;5067044;28;20083;-58
2022/04/12 00:33:17;;;;;;;12.25;6.95;;;;;;;7.68;70.38;101149.41;5067408;28;20119;-58
2022/04/12 00:35:45;;;;;;;14.07;7.03;;;;;;;7.62;70.54;101140.06;5068862;28;20063;-58
2022/04/12 00:38:22;;;;;;;12.52;6.60;;;;;;;7.66;70.44;101133.75;5068452;28;20048;-58
2022/04/12 00:40:53;;;;;;;10.73;6.43;;;;;;;7.60;70.82;101129.69;5068445;28;20549;-58
2022/04/12 00:43:27;;;;;;;11.65;6.80;;;;;;;7.58;70.92;101121.06;5068403;28;20064;-58
2022/04/12 00:46:00;;;;;;;10.98;6.82;;;;;;;7.64;70.37;101126.94;5068350;28;20056;-58
2022/04/12 00:48:28;;;;;;;13.77;6.68;;;;;;;7.61;70.50;101120.06;5066619;28;20376;-58
2022/04/12 00:50:58;;;;;;;11.45;6.78;;;;;;;7.60;70.54;101129.69;5068868;28;20049;-59
2022/04/12 00:53:27;;;;;;;11.55;7.50;;;;;;;7.55;70.81;101122.97;5068085;28;20051;-57
2022/04/12 00:55:57;;;;;;;11.60;7.75;;;;;;;7.52;70.78;101123.97;5068363;28;20452;-57
2022/04/12 00:58:26;;;;;;;17.00;7.55;;;;;;;7.52;71.01;101116.09;5067720;28;20052;-58
2022/04/12 01:00:54;;;;;;;11.80;6.80;;;;;;;7.49;71.57;101120.66;5066492;28;20068;-58
2022/04/12 01:03:22;;;;;;;10.40;6.32;;;;;;;7.55;70.61;101115.97;5066558;28;20086;-57
2022/04/12 01:05:50;;;;;;;12.73;7.30;;;;;;;7.46;71.13;101119.03;5068106;28;20044;-58
2022/04/12 01:08:19;;;;;;;10.70;6.80;;;;;;;7.54;70.71;101105.56;5068183;28;20318;-57
2022/04/12 01:10:47;;;;;;;10.75;6.72;;;;;;;7.51;71.45;101103.09;5068257;28;20083;-58
2022/04/12 01:13:17;;;;;;;11.82;6.50;;;;;;;7.44;70.94;101099.94;5068376;28;20056;-57
2022/04/12 01:15:45;;;;;;;12.75;6.78;;;;;;;7.39;71.05;101091.44;5067986;28;20075;-58
2022/04/12 01:18:13;;;;;;;11.45;7.05;;;;;;;7.38;71.00;101092.38;5064865;28;20075;-58
2022/04/12 01:20:41;;;;;;;11.50;7.32;;;;;;;7.37;70.98;101099.38;5068808;28;20850;-58
2022/04/12 01:23:15;;;;;;;12.00;6.68;;;;;;;7.29;71.77;101101.50;5067955;28;20048;-59
2022/04/12 01:25:45;;;;;;;11.95;6.72;;;;;;;7.27;71.55;101103.38;5068040;28;20040;-58
2022/04/12 01:28:13;;;;;;;11.32;6.65;;;;;;;7.22;72.06;101110.56;5067754;28;20044;-52
2022/04/12 01:30:41;;;;;;;13.30;6.40;;;;;;;7.22;71.82;101114.03;5067727;28;20481;-52
2022/04/12 01:33:10;;;;;;;11.20;6.72;;;;;;;7.17;72.12;101113.41;5066244;28;20422;-53
2022/04/12 01:35:38;;;;;;;11.30;6.55;;;;;;;7.18;72.26;101102.00;5072093;28;20098;-53
2022/04/12 01:38:06;;;;;;;11.77;6.55;;;;;;;7.16;72.49;101098.63;5071567;28;20052;-58
2022/04/12 01:40:34;;;;;;;13.60;6.63;;;;;;;7.12;72.04;101104.94;5072273;28;20075;-58
2022/04/12 01:43:04;;;;;;;11.77;6.18;;;;;;;7.15;71.97;101096.94;5071594;28;20553;-58
2022/04/12 01:45:32;;;;;;;11.85;6.40;;;;;;;7.14;71.75;101095.22;5071646;28;20430;-58
2022/04/12 01:48:00;;;;;;;10.13;6.28;;;;;;;7.13;71.98;101093.56;5069229;28;20045;-58
2022/04/12 01:50:29;;;;;;;10.80;6.88;;;;;;;7.10;72.04;101091.91;5071991;28;20044;-58
2022/04/12 01:52:57;;;;;;;12.18;7.07;;;;;;;7.06;72.73;101094.72;5071571;28;20460;-58
2022/04/12 01:55:25;;;;;;;13.07;7.22;;;;;;;7.00;72.73;101097.66;5071822;28;20049;-58
2022/04/12 01:57:53;;;;;;;11.15;6.32;;;;;;;7.02;72.72;101093.19;5071350;28;20388;-58
2022/04/12 02:00:22;;;;;;;13.02;7.00;;;;;;;7.01;73.31;101096.72;5071712;28;20665;-59
2022/04/12 02:02:50;;;;;;;10.38;6.05;;;;;;;6.98;73.07;101100.34;5070290;28;20396;-58
2022/04/12 02:05:20;;;;;;;10.07;5.57;;;;;;;6.95;72.66;101095.22;5071787;28;20094;-52
2022/04/12 02:07:48;;;;;;;10.68;6.43;;;;;;;7.01;72.95;101088.84;5071302;28;20048;-54
2022/04/12 02:10:18;;;;;;;13.23;6.93;;;;;;;7.00;72.50;101095.88;5071967;28;20059;-55
2022/04/12 02:12:46;;;;;;;11.15;6.93;;;;;;;6.99;72.61;101091.56;5070475;28;20391;-53
2022/04/12 02:15:14;;;;;;;11.70;6.65;;;;;;;6.94;72.99;101094.38;5070679;28;20048;-53
2022/04/12 02:17:43;;;;;;;10.18;6.45;;;;;;;7.00;72.77;101100.25;5069698;28;20842;-54
2022/04/12 02:20:12;;;;;;;10.85;6.80;;;;;;;6.98;72.95;101095.09;5071375;28;20079;-51
2022/04/12 02:22:40;;;;;;;10.80;6.40;;;;;;;6.97;72.37;101090.78;5071578;28;20045;-52
2022/04/12 02:25:09;;;;;;;11.82;6.50;;;;;;;6.97;72.78;101090.78;5071116;28;20049;-53
2022/04/12 02:27:37;;;;;;;10.18;6.28;;;;;;;6.94;73.77;101088.31;5071381;28;20045;-54
2022/04/12 02:30:07;;;;;;;11.02;6.38;;;;;;;6.90;74.30;101078.91;5071004;28;20399;-54
2022/04/12 02:32:35;;;;;;;11.98;6.70;;;;;;;6.85;75.70;101086.97;5070514;28;20114;-54
2022/04/12 02:35:06;;;;;;;13.20;6.68;;;;;;;6.77;75.86;101079.47;5070525;28;20060;-52
2022/04/12 02:37:34;;;;;;;13.13;5.88;;;;;;;6.79;76.97;101078.53;5070251;28;20060;-54
2022/04/12 02:40:03;;;;;;;10.77;6.35;;;;;;;6.75;76.95;101088.31;5070340;28;20064;-50
2022/04/12 02:42:31;;;;;;;10.45;6.15;;;;;;;6.73;76.20;101082.28;5070116;28;20142;-51
2022/04/12 02:44:59;;;;;;;11.70;6.25;;;;;;;6.76;76.17;101087.38;5070267;28;20659;-52
2022/04/12 02:47:28;;;;;;;10.07;5.95;;;;;;;6.74;76.74;101087.44;5070069;28;20059;-52
2022/04/12 02:49:56;;;;;;;12.52;6.53;;;;;;;6.77;76.87;101083.84;5069692;28;20072;-52
2022/04/12 02:52:25;;;;;;;10.65;6.00;;;;;;;6.81;76.28;101082.78;5070340;28;20056;-51
2022/04/12 02:54:53;;;;;;;12.73;6.65;;;;;;;6.78;75.08;101072.47;5070468;28;20063;-53
2022/04/12 02:57:21;;;;;;;11.90;6.95;;;;;;;6.82;74.59;101073.19;5070566;28;20045;-53
2022/04/12 02:59:49;;;;;;;10.30;5.60;;;;;;;6.80;75.36;101068.00;5070186;28;20151;-54
2022/04/12 03:02:18;;;;;;;10.52;6.65;;;;;;;6.83;75.38;101067.91;5070532;28;20083;-54
2022/04/12 03:04:46;;;;;;;14.45;6.55;;;;;;;6.84;74.49;101068.72;5069081;28;20068;-52
2022/04/12 03:07:14;;;;;;;10.85;6.93;;;;;;;6.79;74.79;101074.19;5070590;28;20036;-54
2022/04/12 03:09:44;;;;;;;10.48;6.45;;;;;;;6.74;74.55;101071.75;5070597;28;20059;-51
2022/04/12 03:12:12;;;;;;;11.20;6.47;;;;;;;6.71;75.06;101066.69;5070516;28;20135;-52
2022/04/12 03:14:40;;;;;;;12.20;6.25;;;;;;;6.64;75.35;101072.25;5069788;28;20052;-51
2022/04/12 03:17:08;;;;;;;11.60;5.97;;;;;;;6.66;75.46;101058.19;5068548;28;20416;-55
2022/04/12 03:19:36;;;;;;;10.93;6.05;;;;;;;6.65;75.06;101060.88;5068875;28;20052;-53
2022/04/12 03:22:05;;;;;;;14.70;6.30;;;;;;;6.65;75.24;101050.44;5069422;28;20062;-52
2022/04/12 03:24:33;;;;;;;10.43;6.57;;;;;;;6.66;76.02;101050.34;5069673;28;20455;-52
2022/04/12 03:27:03;;;;;;;12.32;6.72;;;;;;;6.68;75.92;101048.53;5070139;28;20120;-53
2022/04/12 03:29:31;;;;;;;12.80;6.85;;;;;;;6.67;75.54;101051.22;5069558;28;20522;-53
2022/04/12 03:31:59;;;;;;;10.63;5.97;;;;;;;6.70;75.70;101046.69;5069788;28;20072;-52
2022/04/12 03:34:27;;;;;;;12.95;6.90;;;;;;;6.71;75.42;101043.16;5068149;28;20040;-52
2022/04/12 03:36:55;;;;;;;13.45;6.93;;;;;;;6.68;75.47;101048.53;5069922;28;20449;-52
2022/04/12 03:39:25;;;;;;;11.90;6.85;;;;;;;6.64;75.24;101038.25;5069651;28;20059;-50
2022/04/12 03:41:53;;;;;;;11.18;6.70;;;;;;;6.68;75.68;101035.47;5069384;28;20059;-51
2022/04/12 03:44:23;;;;;;;11.90;6.65;;;;;;;6.66;75.91;101036.44;5069140;28;20047;-54
2022/04/12 03:46:51;;;;;;;12.40;6.93;;;;;;;6.68;75.69;101034.59;5069378;28;20113;-52
2022/04/12 03:49:19;;;;;;;13.98;6.40;;;;;;;6.64;75.61;101031.28;5067909;28;20049;-49
2022/04/12 03:51:47;;;;;;;12.05;7.15;;;;;;;6.62;76.20;101030.50;5069595;28;20437;-52
2022/04/12 03:54:15;;;;;;;12.23;7.07;;;;;;;6.60;76.91;101033.19;5069043;28;20045;-51
2022/04/12 03:56:43;;;;;;;13.32;7.55;;;;;;;6.57;76.05;101033.34;5066986;28;20144;-51
2022/04/12 03:59:11;;;;;;;11.82;7.00;;;;;;;6.58;76.72;101026.34;5069366;28;20076;-50
2022/04/12 04:01:41;;;;;;;13.27;7.25;;;;;;;6.52;76.76;101027.47;5069799;28;20106;-53
2022/04/12 04:04:10;;;;;;;12.73;7.68;;;;;;;6.49;77.54;101026.75;5067776;28;20044;-53
2022/04/12 04:06:38;;;;;;;13.43;7.43;;;;;;;6.48;77.87;101025.06;5069917;28;20075;-52
2022/04/12 04:09:06;;;;;;;13.13;7.72;;;;;;;6.50;77.40;101028.44;5068580;28;20052;-51
2022/04/12 04:11:38;;;;;;;14.32;7.65;;;;;;;6.45;77.82;101038.25;5069519;28;20118;-58
2022/04/12 04:14:09;;;;;;;14.67;7.33;;;;;;;6.46;77.61;101032.94;5069033;28;20418;-49
2022/04/12 04:16:37;;;;;;;11.90;7.03;;;;;;;6.42;78.60;101024.41;5069497;28;20057;-51
2022/04/12 04:19:09;;;;;;;13.02;7.32;;;;;;;6.41;78.86;101035.78;5065961;28;20253;-52
2022/04/12 04:21:37;;;;;;;12.40;6.88;;;;;;;6.45;78.55;101039.13;5069322;28;20102;-51
2022/04/12 04:24:06;;;;;;;13.40;6.80;;;;;;;6.47;78.50;101039.88;5068513;28;20067;-53
2022/04/12 04:26:34;;;;;;;12.75;7.03;;;;;;;6.48;78.78;101025.91;5069102;28;20048;-52
2022/04/12 04:29:02;;;;;;;13.38;6.68;;;;;;;6.50;78.97;101031.91;5068535;28;20135;-51
2022/04/12 04:31:30;;;;;;;10.95;6.85;;;;;;;6.55;77.97;101029.09;5067911;28;20097;-58
2022/04/12 04:33:58;;;;;;;11.60;6.28;;;;;;;6.47;78.36;101024.19;5066776;28;20383;-58
2022/04/12 04:36:28;;;;;;;12.25;6.50;;;;;;;6.44;78.75;101019.13;5068828;28;20082;-57
2022/04/12 04:38:56;;;;;;;13.10;7.13;;;;;;;6.31;79.19;101024.03;5068157;28;20048;-57
2022/04/12 04:41:24;;;;;;;12.52;7.18;;;;;;;6.29;79.58;101027.66;5069053;28;20416;-57
2022/04/12 04:43:52;;;;;;;12.20;6.70;;;;;;;6.32;79.69;101032.72;5059869;28;20068;-57
2022/04/12 04:46:21;;;;;;;10.93;6.90;;;;;;;6.33;79.92;101034.44;5068669;28;20102;-58
2022/04/12 04:48:49;;;;;;;12.40;6.53;;;;;;;6.24;79.10;101039.16;5052425;28;20565;-57
2022/04/12 04:51:18;;;;;;;11.35;6.97;;;;;;;6.25;79.82;101038.22;5048896;28;20111;-56
2022/04/12 04:53:56;;;;;;;10.80;5.80;;;;;;;6.25;79.76;101034.75;5048215;28;20049;-57
2022/04/12 04:56:24;;;;;;;12.70;6.15;;;;;;;6.20;79.63;101021.06;5048893;28;20393;-56
2022/04/12 04:58:52;;;;;;;11.07;6.65;;;;;;;6.29;80.09;101018.03;5048007;28;20107;-57
2022/04/12 05:01:21;;;;;;;11.27;6.68;;;;;;;6.26;80.20;101016.41;5048524;28;20546;-58
2022/04/12 05:03:51;;;;;;;13.45;7.32;;;;;;;6.25;80.33;101008.66;5046450;28;20053;-50
2022/04/12 05:06:20;;;;;;;13.57;6.95;;;;;;;6.19;80.61;101025.44;5048264;28;20114;-56
2022/04/12 05:08:50;;;;;;;11.73;6.40;;;;;;;6.20;80.73;101042.81;5047811;28;20053;-57
2022/04/12 05:11:18;;;;;;;12.68;6.43;;;;;;;6.29;80.33;101041.56;5048587;28;20049;-52
2022/04/12 05:13:46;;;;;;;12.27;6.53;;;;;;;6.21;79.83;101043.66;5047854;28;20049;-57
2022/04/12 05:16:14;;;;;;;12.57;6.57;;;;;;;6.25;79.75;101050.44;5048112;28;20151;-49
2022/04/12 05:18:43;;;;;;;12.13;6.68;;;;;;;6.25;79.88;101056.50;5046191;28;20450;-48
2022/04/12 05:21:11;;;;;;;12.75;6.82;;;;;;;6.23;79.97;101058.34;5048043;28;20403;-51
2022/04/12 05:23:39;;;;;;;12.45;6.95;;;;;;;6.23;80.79;101060.97;5047843;28;20048;-50
2022/04/12 05:26:09;;;;;;;12.02;6.95;;;;;;;6.32;80.25;101045.78;5048189;28;20486;-52
2022/04/12 05:28:37;;;;;;;13.88;7.78;;;;;;;6.34;80.04;101041.34;5047438;28;20127;-52
2022/04/12 05:31:05;;;;;;;13.20;7.13;;;;;;;6.39;80.23;101037.63;5046748;28;20063;-53
2022/04/12 05:33:34;;;;;;;16.52;7.78;;;;;;;6.36;80.18;101027.28;5046952;28;20041;-52
2022/04/12 05:36:02;;;;;;;12.45;6.53;;;;;;;6.38;80.29;101033.31;5047810;28;20159;-52
2022/04/12 05:38:30;;;;;;;16.27;7.75;;;;;;;6.42;79.78;101034.88;5047260;28;20045;-50
2022/04/12 05:40:58;;;;;;;17.30;7.25;;;;;;;6.42;80.10;101037.47;5047983;28;20052;-54
2022/04/12 05:43:28;;;;;;;14.82;7.38;;;;;;;6.51;79.24;101046.66;5047355;28;20126;-52
2022/04/12 05:45:56;;;;;;;12.95;7.18;;;;;;;6.50;79.47;101050.19;5047736;28;20049;-52
2022/04/12 05:48:24;;;;;;;11.93;7.03;;;;;;;6.59;79.85;101047.16;5046083;28;20054;-52
2022/04/12 05:50:52;;;;;;;13.23;7.38;;;;;;;6.60;79.45;101045.41;5047899;28;20060;-53
2022/04/12 05:53:22;;;;;;;12.50;6.70;;;;;;;6.68;78.72;101063.34;5047638;28;20120;-53
2022/04/12 05:55:50;;;;;;;14.15;7.35;;;;;;;6.69;79.50;101059.81;5047723;28;20157;-50
2022/04/12 05:58:19;;;;;;;14.95;8.55;;;;;;;6.72;78.87;101050.09;5047561;28;20937;-58
2022/04/12 06:00:48;;;;;;;16.35;8.38;;;;;;;6.78;78.61;101041.13;5047648;28;20056;-58
2022/04/12 06:03:16;;;;;;;15.00;7.57;;;;;;;6.86;78.12;101046.00;5046334;28;20045;-53
2022/04/12 06:05:44;;;;;;;12.63;7.55;;;;;;;6.83;78.57;101059.19;5047602;28;20480;-53
2022/04/12 06:08:13;;;;;;;11.07;6.25;;;;;;;6.86;78.97;101062.53;5047577;28;20128;-53
2022/04/12 06:10:41;;;;;;;13.15;7.38;;;;;;;6.91;79.04;101057.06;5047654;28;20500;-58
2022/04/12 06:13:09;;;;;;;11.85;7.07;;;;;;;6.97;79.09;101048.94;5047600;28;20052;-58
2022/04/12 06:15:37;;;;;;;15.07;7.55;;;;;;;7.05;79.05;101052.06;5047426;28;20041;-59
2022/04/12 06:18:10;;;;;;;11.13;6.78;;;;;;;7.06;79.10;101058.13;5045273;28;20492;-58
2022/04/12 06:20:38;;;;;;;11.85;6.65;;;;;;;7.20;77.62;101044.38;5049416;28;20051;-58
2022/04/12 06:23:07;;;;;;;10.23;6.63;;;;;;;7.20;78.22;101052.22;5051314;28;20036;-58
2022/04/12 06:25:35;;;;;;;12.95;6.47;;;;;;;7.19;77.23;101048.78;5051638;28;20041;-58
2022/04/12 06:28:03;;;;;;;13.85;6.78;;;;;;;7.19;77.74;101053.16;5050779;28;20053;-59
2022/04/12 06:30:31;;;;;;;11.05;6.30;;;;;;;7.16;78.75;101058.53;5051036;28;20053;-58
2022/04/12 06:33:00;;;;;;;11.73;7.40;;;;;;;7.27;78.78;101067.56;5048913;28;20649;-58
2022/04/12 06:35:29;;;;;;;11.93;6.32;;;;;;;7.33;78.58;101065.59;5049539;28;20049;-59
2022/04/12 06:37:57;;;;;;;11.43;6.78;;;;;;;7.37;77.86;101065.34;5050773;28;20048;-59
2022/04/12 06:40:26;;;;;;;13.00;6.82;;;;;;;7.48;77.84;101067.44;5050998;28;20068;-52
2022/04/12 06:42:54;;;;;;;10.88;6.70;;;;;;;7.47;77.08;101063.13;5050435;28;20504;-53
2022/04/12 06:45:22;;;;;;;9.98;6.70;;;;;;;7.53;76.80;101060.22;5050458;28;20041;-49
2022/04/12 06:47:55;;;;;;;11.18;6.90;;;;;;;7.59;76.81;101053.84;5049032;28;20044;-51
2022/04/12 06:50:24;;;;;;;12.73;6.53;;;;;;;7.73;77.46;101058.38;5051134;28;20128;-53
2022/04/12 06:52:54;;;;;;;10.52;6.93;;;;;;;7.82;75.60;101046.63;5049334;28;20041;-52
2022/04/12 06:55:23;;;;;;;10.95;6.85;;;;;;;7.93;76.12;101055.66;5050703;28;20076;-53
2022/04/12 06:57:51;;;;;;;10.35;6.10;;;;;;;8.01;76.31;101052.63;5050586;28;20057;-54
2022/04/12 07:00:20;;;;;;;11.90;7.10;;;;;;;8.18;76.54;101053.53;5050542;28;20068;-52
2022/04/12 07:02:48;;;;;;;10.88;6.93;;;;;;;8.28;75.34;101058.22;5049766;28;20388;-52
2022/04/12 07:05:17;;;;;;;12.43;7.32;;;;;;;8.38;75.87;101055.09;5051452;28;20045;-52
2022/04/12 07:07:45;;;;;;;14.18;7.13;;;;;;;8.53;75.44;101056.94;5050952;28;20052;-50
2022/04/12 07:10:17;;;;;;;10.85;7.18;;;;;;;8.67;74.50;101045.75;5050491;28;20044;-52
2022/04/12 07:12:46;;;;;;;10.90;7.28;;;;;;;8.81;74.67;101047.59;5049309;28;20484;-52
2022/04/12 07:15:15;;;;;;;11.00;6.80;;;;;;;9.00;74.47;101041.34;5050116;28;20045;-53
2022/04/12 07:17:43;;;;;;;11.05;7.47;;;;;;;9.16;74.24;101042.16;5049227;28;20511;-53
2022/04/12 07:20:12;;;;;;;13.23;6.65;;;;;;;9.26;72.70;101034.66;5050397;28;20496;-53
2022/04/12 07:22:40;;;;;;;11.75;7.18;;;;;;;9.34;72.23;101024.56;5050423;28;20381;-53
2022/04/12 07:25:09;;;;;;;11.10;6.63;;;;;;;9.37;72.24;101028.78;5049988;28;20041;-53
2022/04/12 07:27:39;;;;;;;11.80;7.28;;;;;;;9.40;72.62;101024.19;5050298;28;20041;-55
2022/04/12 07:30:09;;;;;;;11.30;7.13;;;;;;;9.41;73.70;101020.66;5049866;28;20120;-54
2022/04/12 07:32:37;;;;;;;11.73;7.15;;;;;;;9.54;74.31;101015.53;5048148;28;20068;-57
2022/04/12 07:35:07;;;;;;;13.23;7.30;;;;;;;9.82;73.43;101014.75;5049522;28;20057;-54
2022/04/12 07:37:35;;;;;;;12.20;6.50;;;;;;;9.98;74.32;100998.09;5049442;28;20056;-52
2022/04/12 07:40:05;;;;;;;12.70;7.15;;;;;;;10.24;73.82;101009.66;5049923;28;20155;-54
2022/04/12 07:42:33;;;;;;;11.77;6.80;;;;;;;10.42;72.06;101005.06;5049410;28;20060;-53
2022/04/12 07:45:02;;;;;;;10.95;6.78;;;;;;;10.61;72.90;101001.31;5048261;28;20060;-51
2022/04/12 07:47:30;;;;;;;11.55;6.75;;;;;;;10.81;73.17;101005.28;5049731;28;20049;-54
2022/04/12 07:49:59;;;;;;;13.05;6.95;;;;;;;10.98;70.70;100999.78;5048911;28;20115;-52
2022/04/12 07:52:27;;;;;;;12.85;6.55;;;;;;;11.20;70.25;100993.13;5049749;28;20404;-53
2022/04/12 07:54:55;;;;;;;13.40;6.85;;;;;;;11.42;70.47;100989.09;5049636;28;20073;-53
2022/04/12 07:57:23;;;;;;;12.02;6.50;;;;;;;11.61;68.91;100981.63;5049610;28;20045;-55
2022/04/12 07:59:51;;;;;;;12.60;6.60;;;;;;;11.84;67.17;100992.41;5049147;28;20091;-53
2022/04/12 08:02:20;;;;;;;11.15;5.78;;;;;;;12.24;63.67;100994.13;5049515;28;20057;-53
2022/04/12 08:04:49;;;;;;;12.02;5.68;;;;;;;12.54;61.26;100998.19;5047797;28;20048;-54
2022/04/12 08:07:17;;;;;;;9.55;5.57;;;;;;;12.72;59.52;101009.22;5049444;28;20087;-55
2022/04/12 08:09:45;;;;;;;10.02;5.60;;;;;;;12.97;59.59;101011.78;5049572;28;20047;-54
2022/04/12 08:12:13;;;;;;;11.52;5.47;;;;;;;13.17;58.22;101005.06;5049124;28;20049;-55
2022/04/12 08:14:41;;;;;;;11.93;5.18;;;;;;;13.30;57.76;101002.34;5048340;28;20041;-55
2022/04/12 08:17:09;;;;;;;9.75;5.88;;;;;;;13.53;57.30;101002.47;5049114;28;20037;-54
2022/04/12 08:19:39;;;;;;;11.82;6.10;;;;;;;13.61;57.05;101001.91;5047551;28;20063;-55
2022/04/12 08:22:08;;;;;;;10.30;5.63;;;;;;;13.85;57.02;101004.47;5049227;28;20043;-55
2022/04/12 08:24:43;;;;;;;11.10;6.43;;;;;;;14.07;55.63;100997.53;5049286;28;20077;-53
2022/04/12 08:27:13;;;;;;;10.82;5.97;;;;;;;14.21;56.26;100989.38;5048785;28;20059;-55
2022/04/12 08:29:41;;;;;;;10.20;5.47;;;;;;;14.25;55.27;100988.16;5048633;28;20098;-58
2022/04/12 08:32:09;;;;;;;10.20;6.30;;;;;;;14.28;56.31;101000.31;5048923;28;20055;-59
2022/04/12 08:34:39;;;;;;;10.80;6.13;;;;;;;14.28;56.27;101001.13;5047273;28;20037;-59
2022/04/12 08:37:07;;;;;;;11.82;6.75;;;;;;;14.51;56.05;100998.50;5048218;28;20502;-59
2022/04/12 08:39:35;;;;;;;10.93;6.68;;;;;;;14.44;56.59;100992.84;5048493;28;20045;-54
2022/04/12 08:42:05;;;;;;;9.60;5.97;;;;;;;14.66;56.11;100994.66;5048884;28;20088;-54
2022/04/12 08:44:36;;;;;;;10.63;6.15;;;;;;;14.92;54.47;100988.22;5048129;28;20098;-55
2022/04/12 08:47:07;;;;;;;10.60;6.18;;;;;;;15.02;54.94;100989.16;5048879;28;20049;-55
2022/04/12 08:49:39;;;;;;;11.88;6.25;;;;;;;15.19;54.38;100979.84;5045585;28;20167;-55
2022/04/12 08:52:11;;;;;;;10.30;5.50;;;;;;;15.32;53.66;100993.72;5048835;28;20055;-54
2022/04/12 08:54:40;;;;;;;12.83;6.50;;;;;;;15.30;53.87;100993.03;5048449;28;20072;-54
2022/04/12 08:57:09;;;;;;;13.00;6.47;;;;;;;15.40;54.17;100986.97;5048570;28;20068;-56
2022/04/12 08:59:38;;;;;;;10.02;6.20;;;;;;;15.69;53.55;100979.19;5047837;28;20143;-59
2022/04/12 09:02:09;;;;;;;11.60;6.32;;;;;;;15.65;53.37;100983.94;5048193;28;20048;-58
2022/04/12 09:04:38;;;;;;;11.57;6.25;;;;;;;15.79;53.00;100984.56;5047138;28;20051;-56
2022/04/12 09:07:11;;;;;;;10.35;6.25;;;;;;;15.89;52.46;100983.66;5048405;28;20048;-59
2022/04/12 09:09:41;;;;;;;9.82;6.38;;;;;;;16.00;52.58;100997.84;5048077;28;20099;-59
2022/04/12 09:12:11;;;;;;;10.65;6.00;;;;;;;16.21;52.35;100990.69;5048399;28;20408;-59
2022/04/12 09:14:40;;;;;;;13.00;6.45;;;;;;;16.22;51.70;100980.91;5047811;28;20048;-56
2022/04/12 09:17:10;;;;;;;13.48;6.40;;;;;;;16.17;51.56;100978.66;5048351;28;20052;-56
2022/04/12 09:19:44;;;;;;;13.75;7.18;;;;;;;16.06;52.35;100970.78;5046721;28;20095;-55
2022/04/12 09:22:15;;;;;;;11.45;6.55;;;;;;;16.37;53.08;100965.44;5048324;28;20057;-56
2022/04/12 09:24:45;;;;;;;11.90;6.22;;;;;;;16.67;52.20;100967.19;5048114;28;20048;-56
2022/04/12 09:27:14;;;;;;;11.23;6.07;;;;;;;16.96;50.97;100953.16;5048561;28;20499;-53
2022/04/12 09:29:49;;;;;;;13.50;6.65;;;;;;;17.16;51.37;100955.81;5046907;28;20063;-56
2022/04/12 09:32:20;;;;;;;10.93;7.00;;;;;;;17.30;50.02;100957.22;5048102;28;20051;-56
2022/04/12 09:34:49;;;;;;;11.70;6.60;;;;;;;17.37;49.82;100948.53;5046268;28;20403;-56
2022/04/12 09:37:20;;;;;;;12.60;6.75;;;;;;;17.38;49.47;100955.53;5048512;28;20044;-56
2022/04/12 09:39:54;;;;;;;10.57;5.88;;;;;;;17.43;49.54;100963.06;5047988;28;20052;-56
2022/04/12 09:42:45;;;;;;;12.40;6.57;;;;;;;17.81;49.49;100955.16;5048175;28;20059;-56
2022/04/12 09:45:16;;;;;;;10.85;6.28;;;;;;;17.98;49.32;100961.56;5048184;28;20053;-59
2022/04/12 09:47:45;;;;;;;11.73;6.40;;;;;;;17.79;48.54;100959.78;5044786;28;20057;-55
2022/04/12 09:50:34;;;;;;;11.00;6.32;;;;;;;18.01;49.08;100946.16;5047789;28;20098;-59
2022/04/12 09:53:11;;;;;;;9.93;6.25;;;;;;;18.38;47.26;100947.13;5047364;28;20133;-59
2022/04/12 09:55:41;;;;;;;11.80;6.30;;;;;;;18.73;47.54;100950.81;5050054;28;20474;-58
2022/04/12 09:58:13;;;;;;;14.23;6.27;;;;;;;18.94;47.58;100942.56;5051213;28;20053;-59
2022/04/12 10:00:42;;;;;;;11.02;6.32;;;;;;;18.96;46.44;100937.91;5051810;28;20057;-59
2022/04/12 10:03:13;;;;;;;11.15;6.50;;;;;;;19.23;46.89;100938.81;5049321;28;20076;-59
2022/04/12 10:05:42;;;;;;;10.93;6.93;;;;;;;19.36;44.90;100933.94;5051780;28;20725;-59
2022/04/12 10:08:13;;;;;;;11.48;6.93;;;;;;;19.33;45.18;100936.88;5050582;28;20075;-59
2022/04/12 10:10:43;;;;;;;11.43;6.85;;;;;;;19.56;45.81;100931.88;5051973;28;20053;-59
2022/04/12 10:13:13;;;;;;;11.10;6.88;;;;;;;19.64;45.84;100939.09;5051397;28;20045;-59
2022/04/12 10:15:42;;;;;;;14.25;6.68;;;;;;;19.70;44.99;100941.16;5051888;28;20040;-59
2022/04/12 10:18:11;;;;;;;10.88;6.57;;;;;;;19.79;44.78;100938.53;5049362;28;20048;-59
2022/04/12 10:20:40;;;;;;;11.45;6.65;;;;;;;19.50;45.85;100932.53;5050026;28;20080;-59
2022/04/12 10:23:17;;;;;;;11.43;6.97;;;;;;;19.78;45.05;100940.34;5047358;28;20507;-59
2022/04/12 10:25:49;;;;;;;14.38;9.57;;;;;;;19.90;44.07;100931.09;5050682;28;20045;-59
2022/04/12 10:28:18;;;;;;;14.23;8.98;;;;;;;19.84;44.73;100937.09;5050415;28;20480;-59
2022/04/12 10:30:46;;;;;;;13.57;7.50;;;;;;;20.16;44.00;100940.06;5050011;28;20065;-59
2022/04/12 10:33:20;;;;;;;13.20;7.00;;;;;;;20.48;44.10;100925.16;5048975;28;20479;-59
2022/04/12 10:36:02;;;;;;;11.75;5.70;;;;;;;20.89;42.58;100931.44;5049484;28;20099;-59
2022/04/12 10:38:44;;;;;;;11.63;5.13;;;;;;;20.62;41.10;100926.38;5049374;28;20077;-59
2022/04/12 10:41:17;;;;;;;10.55;5.40;;;;;;;20.52;42.14;100921.16;5050382;28;20056;-60
2022/04/12 10:43:46;;;;;;;10.98;5.10;;;;;;;20.99;41.54;100920.59;5049526;28;20061;-60
2022/04/12 10:46:19;;;;;;;10.20;5.05;;;;;;;21.15;40.13;100916.25;5049376;28;20123;-58
2022/04/12 10:48:55;;;;;;;9.88;5.03;;;;;;;21.58;39.30;100907.03;5048352;28;20098;-58
2022/04/12 10:51:38;;;;;;;10.05;5.47;;;;;;;21.59;39.71;100905.19;5049701;28;20496;-58
2022/04/12 10:54:27;;;;;;;11.85;5.32;;;;;;;21.55;39.71;100901.19;5049547;28;20052;-58
2022/04/12 10:57:24;;;;;;;9.10;4.57;;;;;;;21.77;39.42;100895.09;5049686;28;20049;-59
2022/04/12 10:59:54;;;;;;;10.07;4.55;;;;;;;21.94;39.07;100905.75;5049256;28;20087;-59
2022/04/12 11:02:28;;;;;;;10.00;5.38;;;;;;;21.74;38.49;100894.59;5049713;28;20053;-59
2022/04/12 11:04:57;;;;;;;11.73;5.25;;;;;;;21.85;38.85;100890.72;5048421;28;20045;-59
2022/04/12 11:07:30;;;;;;;9.02;4.72;;;;;;;22.16;38.06;100884.56;5048987;28;20440;-58
2022/04/12 11:10:30;;;;;;;8.52;4.47;;;;;;;22.32;38.02;100889.84;5048362;28;20087;-59
2022/04/12 11:13:06;;;;;;;10.45;4.78;;;;;;;22.12;37.31;100887.59;5007073;28;20093;-59
2022/04/12 11:15:36;;;;;;;8.43;4.57;;;;;;;22.12;37.83;100884.91;5042705;28;20064;-59
2022/04/12 11:18:09;;;;;;;9.52;5.03;;;;;;;22.16;38.40;100881.91;5047922;28;20640;-60
2022/04/12 11:20:40;;;;;;;9.35;4.28;;;;;;;21.73;37.70;100876.88;5049477;28;20376;-56
2022/04/12 11:23:09;;;;;;;9.05;4.43;;;;;;;21.37;38.98;100872.75;5047547;28;20538;-56
2022/04/12 11:25:47;;;;;;;10.85;5.57;;;;;;;20.98;39.98;100868.13;5048499;28;20056;-56
2022/04/12 11:28:17;;;;;;;9.75;4.40;;;;;;;21.12;40.37;100877.31;5048910;28;20588;-56
2022/04/12 11:30:56;;;;;;;11.32;4.85;;;;;;;21.22;39.99;100869.94;5048160;28;20068;-56
2022/04/12 11:33:26;;;;;;;9.98;4.50;;;;;;;21.06;39.86;100881.47;5047159;28;20037;-56
2022/04/12 11:35:55;;;;;;;7.30;4.22;;;;;;;20.95;39.82;100873.81;5047127;28;20064;-54